createdAt,value
2018-11-14T00:00:17.041Z,82.20
2018-11-14T00:02:48.821Z,82.20
2018-11-14T00:05:23.095Z,82.00
2018-11-14T00:07:55.251Z,82.10
2018-11-14T00:10:34.895Z,82.20
2018-11-14T00:13:13.888Z,82.40
2018-11-14T00:15:48.748Z,82.30
2018-11-14T00:18:20.746Z,82.30
2018-11-14T00:20:52.736Z,82.30
2018-11-14T00:23:24.417Z,82.30
2018-11-14T00:25:56.285Z,82.20
2018-11-14T00:28:35.813Z,82.20
2018-11-14T00:31:08.315Z,82.30
2018-11-14T00:33:40.204Z,82.40
2018-11-14T00:36:14.598Z,82.40
2018-11-14T00:38:46.529Z,82.30
2018-11-14T00:41:22.124Z,82.30
2018-11-14T00:43:53.345Z,82.30
2018-11-14T00:46:25.855Z,82.40
2018-11-14T00:48:57.954Z,82.40
2018-11-14T00:51:30.385Z,82.50
2018-11-14T00:54:07.515Z,82.70
2018-11-14T00:56:42.130Z,82.50
2018-11-14T00:59:14.198Z,82.80
2018-11-14T01:01:47.025Z,82.90
2018-11-14T01:04:18.648Z,82.70
2018-11-14T01:06:50.978Z,82.80
2018-11-14T01:09:23.156Z,82.70
2018-11-14T01:12:01.313Z,82.60
2018-11-14T01:14:32.693Z,82.90
2018-11-14T01:17:04.524Z,82.90
2018-11-14T01:19:36.923Z,82.80
2018-11-14T01:22:11.260Z,82.90
2018-11-14T01:24:43.132Z,82.80
2018-11-14T01:27:13.500Z,82.60
2018-11-14T01:29:51.751Z,83.00
2018-11-14T01:32:29.085Z,82.50
2018-11-14T01:35:02.237Z,82.60
2018-11-14T01:37:33.825Z,82.60
2018-11-14T01:40:06.977Z,82.60
2018-11-14T01:42:39.236Z,83.60
2018-11-14T01:45:12.174Z,83.80
2018-11-14T01:47:45.455Z,83.80
2018-11-14T01:50:17.754Z,84.00
2018-11-14T01:52:57.498Z,84.00
2018-11-14T01:55:29.078Z,83.90
2018-11-14T01:58:09.235Z,84.10
2018-11-14T02:00:41.024Z,84.00
2018-11-14T02:03:12.595Z,84.10
2018-11-14T02:05:49.428Z,84.10
2018-11-14T02:08:21.623Z,84.00
2018-11-14T02:10:53.405Z,83.90
2018-11-14T02:13:25.619Z,84.10
2018-11-14T02:15:57.439Z,84.10
2018-11-14T02:18:29.859Z,84.20
2018-11-14T02:21:01.601Z,84.30
2018-11-14T02:23:34.178Z,84.40
2018-11-14T02:26:06.689Z,84.40
2018-11-14T02:28:42.125Z,84.10
2018-11-14T02:31:13.746Z,84.20
2018-11-14T02:33:45.606Z,84.10
2018-11-14T02:36:17.987Z,84.20
2018-11-14T02:38:49.726Z,84.30
2018-11-14T02:41:22.055Z,84.10
2018-11-14T02:43:53.453Z,84.00
2018-11-14T02:46:25.299Z,84.00
2018-11-14T02:48:57.630Z,84.20
2018-11-14T02:51:30.165Z,84.40
2018-11-14T02:54:02.416Z,84.20
2018-11-14T02:56:34.180Z,84.20
2018-11-14T02:59:06.216Z,84.10
2018-11-14T03:01:37.596Z,84.50
2018-11-14T03:04:09.236Z,84.30
2018-11-14T03:06:40.736Z,84.00
2018-11-14T03:09:13.578Z,83.80
2018-11-14T03:11:53.251Z,83.90
2018-11-14T03:14:24.421Z,84.50
2018-11-14T03:16:56.280Z,84.30
2018-11-14T03:19:27.852Z,84.30
2018-11-14T03:21:59.383Z,84.50
2018-11-14T03:24:31.782Z,84.40
2018-11-14T03:27:03.772Z,83.90
2018-11-14T03:29:35.735Z,83.70
2018-11-14T03:32:07.332Z,83.40
2018-11-14T03:34:38.892Z,83.50
2018-11-14T03:37:10.560Z,83.60
2018-11-14T03:39:42.551Z,83.80
2018-11-14T03:42:14.692Z,84.00
2018-11-14T03:44:46.240Z,84.00
2018-11-14T03:47:17.391Z,84.10
2018-11-14T03:49:56.515Z,83.70
2018-11-14T03:52:28.115Z,83.60
2018-11-14T03:55:00.535Z,83.30
2018-11-14T03:57:32.024Z,83.60
2018-11-14T04:00:04.036Z,83.60
2018-11-14T04:02:36.505Z,83.90
2018-11-14T04:05:09.024Z,83.70
2018-11-14T04:07:41.854Z,83.60
2018-11-14T04:10:14.696Z,83.60
2018-11-14T04:12:49.434Z,84.00
2018-11-14T04:15:20.936Z,83.80
2018-11-14T04:17:52.628Z,83.90
2018-11-14T04:20:24.717Z,84.20
2018-11-14T04:22:56.125Z,84.30
2018-11-14T04:25:28.796Z,84.00
2018-11-14T04:28:00.117Z,84.20
2018-11-14T04:30:31.849Z,84.20
2018-11-14T04:33:11.436Z,83.90
2018-11-14T04:35:43.268Z,84.00
2018-11-14T04:38:14.978Z,83.80
2018-11-14T04:40:46.889Z,83.40
2018-11-14T04:43:18.436Z,83.50
2018-11-14T04:45:50.727Z,83.90
2018-11-14T04:48:22.408Z,83.90
2018-11-14T04:50:54.708Z,83.90
2018-11-14T04:53:27.258Z,84.30
2018-11-14T04:55:58.837Z,84.00
2018-11-14T04:58:32.448Z,84.40
2018-11-14T05:01:04.238Z,84.10
2018-11-14T05:03:35.977Z,83.90
2018-11-14T05:06:07.647Z,83.60
2018-11-14T05:08:39.117Z,83.50
2018-11-14T05:11:11.048Z,82.90
2018-11-14T05:13:43.551Z,82.60
2018-11-14T05:16:15.088Z,82.50
2018-11-14T05:18:47.588Z,82.70
2018-11-14T05:21:21.346Z,82.90
2018-11-14T05:23:53.198Z,83.30
2018-11-14T05:26:25.307Z,83.10
2018-11-14T05:28:58.337Z,83.00
2018-11-14T05:31:33.168Z,83.00
2018-11-14T05:34:05.307Z,82.30
2018-11-14T05:36:37.096Z,81.70
2018-11-14T05:39:12.568Z,81.40
2018-11-14T05:41:45.578Z,81.50
2018-11-14T05:44:17.097Z,81.90
2018-11-14T05:46:48.917Z,81.80
2018-11-14T05:49:20.468Z,81.80
2018-11-14T05:51:53.128Z,82.10
2018-11-14T05:54:26.098Z,81.40
2018-11-14T05:57:06.019Z,81.80
2018-11-14T05:59:36.348Z,81.30
2018-11-14T06:02:14.368Z,81.10
2018-11-14T06:04:49.349Z,80.80
2018-11-14T06:07:20.685Z,80.80
2018-11-14T06:09:57.924Z,80.50
2018-11-14T06:12:32.738Z,80.50
2018-11-14T06:15:04.486Z,80.80
2018-11-14T06:17:36.249Z,80.90
2018-11-14T06:20:12.010Z,80.70
2018-11-14T06:22:44.109Z,80.70
2018-11-14T06:25:23.559Z,80.60
2018-11-14T06:27:55.728Z,80.70
2018-11-14T06:30:27.198Z,80.50
2018-11-14T06:32:59.362Z,80.90
2018-11-14T06:35:39.076Z,81.50
2018-11-14T06:38:10.187Z,81.90
2018-11-14T06:40:41.613Z,81.70
2018-11-14T06:43:13.078Z,81.20
2018-11-14T06:45:44.499Z,80.80
2018-11-14T06:48:15.776Z,80.90
2018-11-14T06:50:48.025Z,80.60
2018-11-14T06:53:22.395Z,80.20
2018-11-14T06:55:54.046Z,80.10
2018-11-14T06:58:25.455Z,79.90
2018-11-14T07:00:56.776Z,79.90
2018-11-14T07:03:36.568Z,80.00
2018-11-14T07:06:07.869Z,79.70
2018-11-14T07:08:39.078Z,79.00
2018-11-14T07:11:11.842Z,78.60
2018-11-14T07:13:42.597Z,79.10
2018-11-14T07:16:12.898Z,79.30
2018-11-14T07:18:44.977Z,79.60
2018-11-14T07:21:17.817Z,80.00
2018-11-14T07:23:51.213Z,80.30
2018-11-14T07:26:22.267Z,80.80
2018-11-14T07:28:54.302Z,81.10
2018-11-14T07:31:28.017Z,81.00
2018-11-14T07:33:58.488Z,80.90
2018-11-14T07:36:31.032Z,80.60
2018-11-14T07:39:03.748Z,80.90
2018-11-14T07:41:36.358Z,80.50
2018-11-14T07:44:09.013Z,80.50
2018-11-14T07:46:48.469Z,80.40
2018-11-14T07:49:20.068Z,80.10
2018-11-14T07:51:51.848Z,80.00
2018-11-14T07:54:24.370Z,79.80
2018-11-14T07:56:56.076Z,79.80
2018-11-14T07:59:28.508Z,79.80
2018-11-14T08:01:59.677Z,79.60
2018-11-14T08:04:37.038Z,79.20
2018-11-14T08:07:07.509Z,78.90
2018-11-14T08:09:51.348Z,77.30
2018-11-14T08:12:23.600Z,76.80
2018-11-14T08:14:55.147Z,76.00
2018-11-14T08:17:34.094Z,75.90
2018-11-14T08:20:11.188Z,75.50
2018-11-14T08:22:50.876Z,74.30
2018-11-14T08:28:53.261Z,73.50
2018-11-14T08:44:28.577Z,70.50
2018-11-14T08:46:59.382Z,70.10
2018-11-14T08:49:34.278Z,70.30
2018-11-14T08:52:04.998Z,70.20
2018-11-14T08:54:35.568Z,70.70
2018-11-14T08:57:06.620Z,70.90
2018-11-14T08:59:37.217Z,71.70
2018-11-14T09:02:09.313Z,71.40
2018-11-14T09:04:40.438Z,71.50
2018-11-14T09:07:20.217Z,72.00
2018-11-14T09:09:59.726Z,72.60
2018-11-14T09:12:39.489Z,73.20
2018-11-14T09:15:23.152Z,73.10
2018-11-14T09:18:02.685Z,73.20
2018-11-14T09:20:42.145Z,73.10
2018-11-14T09:23:19.323Z,72.10
2018-11-14T09:25:58.985Z,71.50
2018-11-14T09:28:38.822Z,71.10
2018-11-14T09:31:12.204Z,70.80
2018-11-14T09:33:45.491Z,70.20
2018-11-14T09:36:21.290Z,69.70
2018-11-14T09:38:55.967Z,69.90
2018-11-14T09:41:28.149Z,69.40
2018-11-14T09:44:00.765Z,69.50
2018-11-14T09:46:35.847Z,69.40
2018-11-14T09:49:10.104Z,69.20
2018-11-14T09:51:42.325Z,68.90
2018-11-14T09:54:17.085Z,68.80
2018-11-14T09:56:49.918Z,69.10
2018-11-14T09:59:22.025Z,69.70
2018-11-14T10:01:54.284Z,69.90
2018-11-14T10:04:29.105Z,69.90
2018-11-14T10:07:01.130Z,70.00
2018-11-14T10:09:33.359Z,70.40
2018-11-14T10:12:06.716Z,70.40
2018-11-14T10:14:38.569Z,70.60
2018-11-14T10:17:11.366Z,70.30
2018-11-14T10:19:43.654Z,70.30
2018-11-14T10:22:15.385Z,69.40
2018-11-14T10:24:47.987Z,70.00
2018-11-14T10:27:21.425Z,69.50
2018-11-14T10:29:53.935Z,69.60
2018-11-14T10:32:34.273Z,69.70
2018-11-14T10:35:06.892Z,69.70
2018-11-14T10:37:39.464Z,70.20
2018-11-14T10:40:14.163Z,70.90
2018-11-14T10:42:47.919Z,70.70
2018-11-14T10:45:22.252Z,71.00
2018-11-14T10:47:54.470Z,71.00
2018-11-14T10:50:31.144Z,71.20
2018-11-14T10:53:06.003Z,70.90
2018-11-14T10:55:40.203Z,70.50
2018-11-14T10:58:13.816Z,70.90
2018-11-14T11:00:53.141Z,70.70
2018-11-14T11:03:30.696Z,71.60
2018-11-14T11:06:08.652Z,72.40
2018-11-14T11:08:47.513Z,72.20
2018-11-14T11:11:24.793Z,72.30
2018-11-14T11:14:06.670Z,72.10
2018-11-14T11:16:43.714Z,72.10
2018-11-14T11:19:22.824Z,72.10
2018-11-14T11:21:57.014Z,72.30
2018-11-14T11:24:29.613Z,72.20
2018-11-14T11:27:01.273Z,72.60
2018-11-14T11:29:33.892Z,73.10
2018-11-14T11:32:06.854Z,73.00
2018-11-14T11:34:46.794Z,73.10
2018-11-14T11:37:20.475Z,73.10
2018-11-14T11:39:57.984Z,73.40
2018-11-14T11:42:34.308Z,73.60
2018-11-14T11:45:10.196Z,73.50
2018-11-14T11:47:42.225Z,73.80
2018-11-14T11:50:15.685Z,73.50
2018-11-14T11:52:51.323Z,73.20
2018-11-14T11:55:27.754Z,73.20
2018-11-14T11:58:00.643Z,73.40
2018-11-14T12:00:32.589Z,73.50
2018-11-14T12:03:04.202Z,73.60
2018-11-14T12:05:36.275Z,73.60
2018-11-14T12:08:08.662Z,73.30
2018-11-14T12:10:40.720Z,73.60
2018-11-14T12:13:12.827Z,73.80
2018-11-14T12:15:46.323Z,73.50
2018-11-14T12:18:18.723Z,73.40
2018-11-14T12:20:53.587Z,73.40
2018-11-14T12:23:29.604Z,73.50
2018-11-14T12:26:08.803Z,73.80
2018-11-14T12:28:40.251Z,73.80
2018-11-14T12:31:12.135Z,74.00
2018-11-14T12:33:43.851Z,74.30
2018-11-14T12:36:17.392Z,74.90
2018-11-14T12:38:57.743Z,75.00
2018-11-14T12:41:34.174Z,74.90
2018-11-14T12:44:08.381Z,75.10
2018-11-14T12:46:41.409Z,75.20
2018-11-14T12:49:14.220Z,75.30
2018-11-14T12:51:47.109Z,75.60
2018-11-14T12:54:18.780Z,75.60
2018-11-14T12:56:53.420Z,75.50
2018-11-14T12:59:29.894Z,75.70
2018-11-14T13:02:02.704Z,75.70
2018-11-14T13:04:35.494Z,75.80
2018-11-14T13:07:07.875Z,76.70
2018-11-14T13:09:40.414Z,76.40
2018-11-14T13:12:12.315Z,76.30
2018-11-14T13:14:43.914Z,76.70
2018-11-14T13:17:15.663Z,76.50
2018-11-14T13:19:49.900Z,76.60
2018-11-14T13:22:22.342Z,76.80
2018-11-14T13:24:54.651Z,76.60
2018-11-14T13:27:27.241Z,77.00
2018-11-14T13:30:01.203Z,77.10
2018-11-14T13:32:40.684Z,77.40
2018-11-14T13:35:21.644Z,77.60
2018-11-14T13:38:01.372Z,77.60
2018-11-14T13:40:33.233Z,77.60
2018-11-14T13:43:06.390Z,77.70
2018-11-14T13:45:41.181Z,77.70
2018-11-14T13:48:15.879Z,77.80
2018-11-14T13:50:51.247Z,77.80
2018-11-14T13:53:23.950Z,78.00
2018-11-14T13:56:03.671Z,78.00
2018-11-14T13:58:39.488Z,78.10
2018-11-14T14:01:15.511Z,78.20
2018-11-14T14:03:47.295Z,78.00
2018-11-14T14:06:19.033Z,78.10
2018-11-14T14:08:54.155Z,78.30
2018-11-14T14:11:26.715Z,78.30
2018-11-14T14:14:07.640Z,78.50
2018-11-14T14:16:40.670Z,78.50
2018-11-14T14:19:12.330Z,78.50
2018-11-14T14:21:44.040Z,78.70
2018-11-14T14:24:16.832Z,78.50
2018-11-14T14:26:56.461Z,78.50
2018-11-14T14:29:36.153Z,78.60
2018-11-14T14:32:09.142Z,78.50
2018-11-14T14:34:49.296Z,78.80
2018-11-14T14:37:24.647Z,78.90
2018-11-14T14:39:57.587Z,78.80
2018-11-14T14:42:29.396Z,78.70
2018-11-14T14:45:04.910Z,78.80
2018-11-14T14:47:37.082Z,78.70
2018-11-14T14:50:16.316Z,78.70
2018-11-14T14:52:48.426Z,78.30
2018-11-14T14:55:22.965Z,78.60
2018-11-14T14:57:55.415Z,78.50
2018-11-14T15:00:28.727Z,78.70
2018-11-14T15:03:00.526Z,78.70
2018-11-14T15:05:32.716Z,78.50
2018-11-14T15:08:04.544Z,78.70
2018-11-14T15:10:37.425Z,78.80
2018-11-14T15:13:09.106Z,78.70
2018-11-14T15:15:42.260Z,78.60
2018-11-14T15:18:13.756Z,79.00
2018-11-14T15:20:45.565Z,79.10
2018-11-14T15:23:17.336Z,79.10
2018-11-14T15:25:49.738Z,78.90
2018-11-14T15:28:23.745Z,78.80
2018-11-14T15:30:56.515Z,78.90
2018-11-14T15:33:28.946Z,78.80
2018-11-14T15:36:00.820Z,78.80
2018-11-14T15:38:32.686Z,78.90
2018-11-14T15:41:04.665Z,78.90
2018-11-14T15:43:36.305Z,78.90
2018-11-14T15:46:09.086Z,79.00
2018-11-14T15:48:43.205Z,79.10
2018-11-14T15:51:15.365Z,79.10
2018-11-14T15:53:47.294Z,79.40
2018-11-14T15:56:26.930Z,79.20
2018-11-14T15:58:59.652Z,79.20
2018-11-14T16:01:31.658Z,79.10
2018-11-14T16:04:06.455Z,79.00
2018-11-14T16:06:38.298Z,79.00
2018-11-14T16:09:13.436Z,79.50
2018-11-14T16:11:45.966Z,79.10
2018-11-14T16:14:18.895Z,79.10
2018-11-14T16:16:51.175Z,78.90
2018-11-14T16:19:25.045Z,79.00
2018-11-14T16:21:56.596Z,79.10
2018-11-14T16:24:35.666Z,79.30
2018-11-14T16:27:07.943Z,79.40
2018-11-14T16:29:40.184Z,79.40
2018-11-14T16:32:12.115Z,79.60
2018-11-14T16:34:52.803Z,79.40
2018-11-14T16:37:24.812Z,79.30
2018-11-14T16:39:57.522Z,79.30
2018-11-14T16:42:29.342Z,79.10
2018-11-14T16:45:02.202Z,79.20
2018-11-14T16:47:33.962Z,79.20
2018-11-14T16:50:06.106Z,79.30
2018-11-14T16:52:37.673Z,79.20
2018-11-14T16:55:11.332Z,79.10
2018-11-14T16:57:49.947Z,79.00
2018-11-14T17:00:31.499Z,79.10
2018-11-14T17:03:03.158Z,79.00
2018-11-14T17:05:42.493Z,78.90
2018-11-14T17:08:14.982Z,78.90
2018-11-14T17:10:47.393Z,79.00
2018-11-14T17:13:19.141Z,79.20
2018-11-14T17:15:58.711Z,79.20
2018-11-14T17:18:31.159Z,79.30
2018-11-14T17:21:02.931Z,79.30
2018-11-14T17:23:35.200Z,79.30
2018-11-14T17:26:06.816Z,79.00
2018-11-14T17:28:43.192Z,78.70
2018-11-14T17:31:16.402Z,78.90
2018-11-14T17:33:48.812Z,78.50
2018-11-14T17:36:23.316Z,78.50
2018-11-14T17:38:54.821Z,78.60
2018-11-14T17:41:27.491Z,78.40
2018-11-14T17:44:00.762Z,78.40
2018-11-14T17:46:32.213Z,78.30
2018-11-14T17:49:04.412Z,78.50
2018-11-14T17:51:36.105Z,78.50
2018-11-14T17:54:08.074Z,78.60
2018-11-14T17:56:40.023Z,78.60
2018-11-14T17:59:12.513Z,78.60
2018-11-14T18:01:45.674Z,78.20
2018-11-14T18:04:18.785Z,78.30
2018-11-14T18:06:52.063Z,78.10
2018-11-14T18:09:39.552Z,78.20
2018-11-14T18:12:11.533Z,78.30
2018-11-14T18:14:43.693Z,78.50
2018-11-14T18:17:15.672Z,78.60
2018-11-14T18:19:48.192Z,78.70
2018-11-14T18:22:21.034Z,78.50
2018-11-14T18:24:53.522Z,78.80
2018-11-14T18:27:25.663Z,79.10
2018-11-14T18:29:57.469Z,79.30
2018-11-14T18:32:28.962Z,79.30
2018-11-14T18:35:03.703Z,79.70
2018-11-14T18:37:35.413Z,79.60
2018-11-14T18:40:09.094Z,79.50
2018-11-14T18:42:41.333Z,79.40
2018-11-14T18:45:17.918Z,79.00
2018-11-14T18:47:50.006Z,78.90
2018-11-14T18:50:22.583Z,78.80
2018-11-14T18:52:54.664Z,80.00
2018-11-14T18:55:27.212Z,80.10
2018-11-14T18:57:59.735Z,80.20
2018-11-14T19:00:32.743Z,80.20
2018-11-14T19:03:04.933Z,79.90
2018-11-14T19:05:38.275Z,79.70
2018-11-14T19:08:09.276Z,78.30
2018-11-14T19:10:40.985Z,78.20
2018-11-14T19:13:12.166Z,78.10
2018-11-14T19:15:44.545Z,78.00
2018-11-14T19:18:16.035Z,79.60
2018-11-14T19:20:47.265Z,79.50
2018-11-14T19:23:18.465Z,79.60
2018-11-14T19:25:49.286Z,79.60
2018-11-14T19:28:21.055Z,79.70
2018-11-14T19:30:54.586Z,79.40
2018-11-14T19:33:25.418Z,79.50
2018-11-14T19:35:57.527Z,79.50
2018-11-14T19:38:29.785Z,79.40
2018-11-14T19:41:01.165Z,79.40
2018-11-14T19:43:33.188Z,79.00
2018-11-14T19:46:04.774Z,79.50
2018-11-14T19:48:35.825Z,79.50
2018-11-14T19:51:07.465Z,79.60
2018-11-14T19:53:39.058Z,79.70
2018-11-14T19:56:10.588Z,79.90
2018-11-14T19:58:43.265Z,80.00
2018-11-14T20:01:15.146Z,80.00
2018-11-14T20:03:46.708Z,79.70
2018-11-14T20:06:18.086Z,79.90
2018-11-14T20:08:49.316Z,79.80
2018-11-14T20:11:20.579Z,80.00
2018-11-14T20:13:55.995Z,79.70
2018-11-14T20:16:27.276Z,79.20
2018-11-14T20:18:58.607Z,79.10
2018-11-14T20:21:32.036Z,79.00
2018-11-14T20:24:04.097Z,78.90
2018-11-14T20:26:35.035Z,78.90
2018-11-14T20:29:08.485Z,78.90
2018-11-14T20:31:41.761Z,79.10
2018-11-14T20:34:14.646Z,79.30
2018-11-14T20:36:45.553Z,79.30
2018-11-14T20:39:16.799Z,78.90
2018-11-14T20:41:48.288Z,79.20
2018-11-14T20:44:19.297Z,79.20
2018-11-14T20:46:51.295Z,79.10
2018-11-14T20:49:22.347Z,78.90
2018-11-14T20:51:53.515Z,79.00
2018-11-14T20:54:26.167Z,79.00
2018-11-14T20:56:57.096Z,79.20
2018-11-14T20:59:28.947Z,79.40
2018-11-14T21:02:00.337Z,79.30
2018-11-14T21:04:30.989Z,79.40
2018-11-14T21:07:02.696Z,79.30
2018-11-14T21:09:34.454Z,78.80
2018-11-14T21:12:06.242Z,79.00
2018-11-14T21:14:37.617Z,78.90
2018-11-14T21:17:09.357Z,78.50
2018-11-14T21:19:41.154Z,78.70
2018-11-14T21:22:14.606Z,78.40
2018-11-14T21:24:46.004Z,78.10
2018-11-14T21:27:17.885Z,78.40
2018-11-14T21:29:49.742Z,77.90
2018-11-14T21:32:20.516Z,77.70
2018-11-14T21:34:52.675Z,78.10
2018-11-14T21:37:23.756Z,78.30
2018-11-14T21:39:55.035Z,78.50
2018-11-14T21:42:26.855Z,78.80
2018-11-14T21:44:58.025Z,79.00
2018-11-14T21:47:33.664Z,79.40
2018-11-14T21:50:04.835Z,79.40
2018-11-14T21:52:35.596Z,79.50
2018-11-14T21:55:06.588Z,79.50
2018-11-14T21:57:38.025Z,79.40
2018-11-14T22:00:13.235Z,79.30
2018-11-14T22:02:49.538Z,79.10
2018-11-14T22:05:20.584Z,79.30
2018-11-14T22:07:52.165Z,79.10
2018-11-14T22:10:25.637Z,79.30
2018-11-14T22:12:56.467Z,79.10
2018-11-14T22:15:28.814Z,79.10
2018-11-14T22:18:00.685Z,79.00
2018-11-14T22:20:32.916Z,79.10
2018-11-14T22:23:03.568Z,79.30
2018-11-14T22:25:35.136Z,78.90
2018-11-14T22:28:07.063Z,78.80
2018-11-14T22:30:39.285Z,79.00
2018-11-14T22:33:09.928Z,78.90
2018-11-14T22:35:50.325Z,78.90
2018-11-14T22:38:30.084Z,78.70
2018-11-14T22:41:01.284Z,78.40
2018-11-14T22:43:32.234Z,78.20
2018-11-14T22:46:04.834Z,78.50
2018-11-14T22:48:38.654Z,78.40
2018-11-14T22:51:10.603Z,78.20
2018-11-14T22:53:42.084Z,78.30
2018-11-14T22:56:21.632Z,78.10
2018-11-14T22:58:54.739Z,78.20
2018-11-14T23:01:26.367Z,77.80
2018-11-14T23:03:56.430Z,78.20
2018-11-14T23:06:28.468Z,78.20
2018-11-14T23:09:09.393Z,77.90
2018-11-14T23:11:49.274Z,77.80
2018-11-14T23:14:20.830Z,77.90
2018-11-14T23:16:53.221Z,77.80
2018-11-14T23:19:24.221Z,78.10
2018-11-14T23:21:55.274Z,77.80
2018-11-14T23:24:28.045Z,77.60
2018-11-14T23:26:59.674Z,77.80
2018-11-14T23:29:31.235Z,77.60
2018-11-14T23:32:03.058Z,77.60
2018-11-14T23:34:34.845Z,77.60
2018-11-14T23:37:06.256Z,77.80
2018-11-14T23:39:37.815Z,77.30
2018-11-14T23:42:10.324Z,77.10
2018-11-14T23:44:40.801Z,76.90
2018-11-14T23:47:12.342Z,76.80
2018-11-14T23:49:44.132Z,77.20
2018-11-14T23:52:15.862Z,77.10
2018-11-14T23:54:47.022Z,77.40
2018-11-14T23:57:18.402Z,77.10
2018-11-14T23:59:49.552Z,76.90
